Latest Weather Observations for Cape Jaffa

IDS60801

Issued at 11:31 am CDT Sunday 18 February 2018 (issued every 30 minutes, with the page automatically refreshed every 10 minutes)

About weather observations | Map of weather stations | Latest weather observations for SA | Other Formats
Station Details ID: 026095 Name: THE LIMESTONE Lat: -36.97 Lon: 139.72 Height: 17.0 m
Data from the previous 72 hours. | See also: Recent months at Cape Jaffa
Date/Time
CDT
Temp
°C
App
Temp
°C
Dew
Point
°C
Rel
Hum
%
Delta-T
°C
Wind Press
QNH
hPa
Press
MSL
hPa
Rain since
9am
mm
Dir  Spd
km/h
Gust
km/h
Spd
kts
Gust
kts
18/11:30am 18.5 17.1 14.4 77 2.4 S 15 19 8 10 1014.6 1014.5 0.0
18/11:00am 18.3 17.1 14.0 76 2.5 S 13 19 7 10 1014.4 1014.3 0.0
18/10:30am 18.1 17.7 14.2 78 2.2 SSE 9 17 5 9 1014.3 1014.2 0.0
18/10:00am 17.5 17.1 14.2 81 1.9 SE 9 13 5 7 1014.3 1014.2 0.0
18/09:30am 17.0 16.3 14.3 84 1.5 SE 11 17 6 9 1013.9 1013.8 0.0
18/09:00am 16.7 16.2 14.9 89 1.0 SE 11 19 6 10 1013.5 1013.4 0.0
18/08:30am 15.8 15.2 14.5 92 0.7 SSE 11 15 6 8 1013.3 1013.2 0.0
18/08:00am 15.4 15.4 14.3 93 0.6 SSE 7 11 4 6 1012.8 1012.7 0.0
18/07:30am 14.3 13.6 13.2 93 0.6 SSE 9 15 5 8 1012.5 1012.4 0.0
18/07:00am 13.3 12.8 12.2 93 0.6 SSE 6 9 3 5 1012.2 1012.1 0.0
18/06:30am 13.3 12.8 12.2 93 0.6 ESE 6 6 3 3 1011.8 1011.7 0.0
18/06:00am 13.5 13.1 12.4 93 0.6 SE 6 7 3 4 1011.2 1011.1 0.0
18/05:30am 13.5 13.1 12.4 93 0.6 SE 6 7 3 4 1011.3 1011.2 0.0
18/05:00am 13.6 12.6 12.3 92 0.7 SE 9 11 5 6 1011.3 1011.2 0.0
18/04:30am 13.4 12.9 12.1 92 0.7 SE 6 7 3 4 1011.2 1011.1 0.0
18/04:00am 13.8 13.3 12.5 92 0.7 SE 7 9 4 5 1011.1 1011.0 0.0
18/03:30am 13.8 13.3 12.5 92 0.7 SE 7 9 4 5 1010.9 1010.8 0.0
18/03:00am 13.5 12.9 12.2 92 0.7 SE 7 9 4 5 1011.4 1011.3 0.0
18/02:30am 13.7 13.3 12.3 91 0.8 ESE 6 6 3 3 1011.6 1011.5 0.0
18/02:00am 14.0 13.6 12.4 90 0.9 ESE 6 7 3 4 1011.7 1011.6 0.0
18/01:30am 14.1 13.6 12.1 88 1.1 ESE 6 7 3 4 1012.0 1011.9 0.0
18/01:00am 14.8 14.0 12.8 88 1.1 SSE 9 13 5 7 1012.0 1011.9 0.0
18/12:30am 15.5 14.8 13.3 87 1.2 SSE 9 11 5 6 1012.3 1012.2 0.0
18/12:00am 15.4 14.7 13.1 86 1.3 S 9 11 5 6 1012.4 1012.3 0.0
 
Date/Time
CDT
Temp
°C
App
Temp
°C
Dew
Point
°C
Rel
Hum
%
Delta-T
°C
Wind Press
QNH
hPa
Press
MSL
hPa
Rain since
9am
mm
Dir  Spd
km/h
Gust
km/h
Spd
kts
Gust
kts
17/11:30pm 15.6 14.9 13.3 86 1.3 SSW 9 11 5 6 1012.4 1012.3 0.0
17/11:00pm 15.7 14.2 13.0 84 1.5 SSW 13 15 7 8 1012.8 1012.7 0.0
17/10:30pm 16.3 15.3 13.4 83 1.6 SW 11 13 6 7 1013.2 1013.1 0.0
17/10:00pm 16.4 14.9 13.1 81 1.8 SW 13 17 7 9 1013.0 1012.9 0.0
17/09:30pm 16.4 15.4 13.3 82 1.7 SW 11 15 6 8 1013.0 1012.9 0.0
17/09:00pm 16.0 15.1 12.6 80 1.9 SW 9 9 5 5 1012.6 1012.5 0.0
17/08:30pm 16.6 15.3 12.6 77 2.2 SW 11 13 6 7 1012.7 1012.6 0.0
17/08:00pm 17.5 16.2 12.6 73 2.7 WSW 11 13 6 7 1012.6 1012.5 0.0
17/07:30pm 18.3 17.4 12.7 70 3.1 WSW 9 11 5 6 1012.0 1011.9 0.0
17/07:00pm 18.8 18.3 12.8 68 3.4 SSW 7 11 4 6 1011.8 1011.7 0.0
17/06:30pm 19.3 18.1 12.8 66 3.7 SW 11 15 6 8 1012.1 1012.0 0.0
17/06:00pm 20.1 18.9 12.8 63 4.1 WSW 11 19 6 10 1012.4 1012.3 0.0
17/05:30pm 20.6 18.9 12.3 59 4.7 SW 13 19 7 10 1012.3 1012.2 0.0
17/05:00pm 21.1 20.2 12.5 58 4.9 WSW 9 17 5 9 1012.3 1012.2 0.0
17/04:30pm 20.7 18.8 11.9 57 4.9 WSW 13 19 7 10 1012.5 1012.4 0.0
17/04:00pm 20.5 18.3 12.0 58 4.7 WSW 15 22 8 12 1012.7 1012.6 0.0
17/03:30pm 21.0 18.5 12.2 57 4.9 WSW 17 24 9 13 1013.1 1013.0 0.0
17/03:00pm 21.1 19.3 12.0 56 5.1 WSW 13 22 7 12 1013.2 1013.1 0.0
17/02:30pm 21.1 18.7 11.4 54 5.4 W 15 24 8 13 1013.5 1013.4 0.0
17/02:00pm 21.6 19.3 11.9 54 5.4 W 15 24 8 13 1013.8 1013.7 0.0
17/01:30pm 21.1 18.7 11.4 54 5.4 W 15 24 8 13 1014.2 1014.1 0.0
17/01:00pm 20.5 18.6 10.6 53 5.4 W 11 22 6 12 1014.2 1014.1 0.0
17/12:30pm 20.2 18.3 10.6 54 5.2 W 11 19 6 10 1014.1 1014.0 0.0
17/12:00pm 19.5 17.4 11.0 58 4.6 NNW 13 19 7 10 1014.5 1014.4 0.0
17/11:30am 19.7 17.5 10.9 57 4.8 NNW 13 20 7 11 1014.4 1014.3 0.0
17/11:00am 19.4 18.0 10.9 58 4.6 WNW 9 15 5 8 1014.5 1014.4 0.0
17/10:30am 18.5 16.2 10.3 59 4.4 WNW 13 19 7 10 1014.8 1014.7 0.0
17/10:00am 17.9 15.6 10.5 62 4.0 NNW 13 19 7 10 1014.9 1014.8 0.0
17/09:30am 17.7 16.1 10.3 62 3.9 WNW 9 17 5 9 1014.8 1014.7 0.0
17/09:00am 17.4 16.8 11.7 69 3.1 N 6 15 3 8 1014.5 1014.4 0.0
17/08:30am 15.4 14.9 10.8 74 2.4 NE 4 6 2 3 1014.4 1014.3 0.0
17/08:00am 14.1 13.4 9.9 76 2.2 ENE 4 6 2 3 1014.4 1014.3 0.0
17/07:30am 12.9 11.7 9.4 79 1.8 ENE 6 6 3 3 1014.1 1014.0 0.0
17/07:00am 12.5 11.1 9.0 79 1.8 E 6 7 3 4 1013.8 1013.7 0.0
17/06:30am 12.3 11.7 9.1 81 1.6 ESE 2 6 1 3 1013.8 1013.7 0.0
17/06:00am 11.4 9.9 8.6 83 1.4 ENE 6 6 3 3 1013.4 1013.3 0.0
17/05:30am 10.9 9.8 8.3 84 1.3 ESE 4 6 2 3 1013.0 1012.9 0.0
17/05:00am 10.9 9.4 8.3 84 1.3 ESE 6 7 3 4 1012.6 1012.5 0.0
17/04:30am 10.8 9.0 8.0 83 1.4 ENE 7 9 4 5 1012.7 1012.6 0.0
17/04:00am 11.4 10.7 8.4 82 1.5 E 2 4 1 2 1013.2 1013.1 0.0
17/03:30am 12.5 12.2 8.8 78 1.8 CALM 0 0 0 0 1013.4 1013.3 0.0
17/03:00am 13.4 12.0 8.7 73 2.4 WSW 6 9 3 5 1013.5 1013.4 0.0
17/02:30am 14.9 13.5 9.7 71 2.7 SW 7 11 4 6 1013.8 1013.7 0.0
17/02:00am 14.7 13.4 9.9 73 2.5 SW 7 11 4 6 1014.0 1013.9 0.0
17/01:30am 13.9 12.1 9.5 75 2.3 SW 9 15 5 8 1014.4 1014.3 0.0
17/01:00am 13.7 12.3 9.4 75 2.2 SW 7 9 4 5 1014.5 1014.4 0.0
17/12:30am 13.8 12.3 9.3 74 2.3 SW 7 11 4 6 1014.7 1014.6 0.0
17/12:00am 14.1 12.2 9.1 72 2.5 SW 9 15 5 8 1014.7 1014.6 0.0
 
Date/Time
CDT
Temp
°C
App
Temp
°C
Dew
Point
°C
Rel
Hum
%
Delta-T
°C
Wind Press
QNH
hPa
Press
MSL
hPa
Rain since
9am
mm
Dir  Spd
km/h
Gust
km/h
Spd
kts
Gust
kts
16/11:30pm 14.4 12.3 9.6 73 2.5 SW 11 13 6 7 1014.9 1014.8 0.0
16/11:00pm 14.6 12.8 9.6 72 2.6 SW 9 13 5 7 1015.3 1015.2 0.0
16/10:30pm 15.0 13.0 10.2 73 2.5 SW 11 15 6 8 1015.4 1015.3 0.0
16/10:00pm 15.0 13.3 10.0 72 2.6 SW 9 13 5 7 1015.4 1015.3 0.0
16/09:30pm 14.8 13.1 10.0 73 2.5 SW 9 13 5 7 1015.2 1015.1 0.0
16/09:00pm 14.8 13.0 9.6 71 2.7 SW 9 13 5 7 1015.2 1015.1 0.0
16/08:30pm 15.4 13.7 9.7 69 3.0 SW 9 11 5 6 1015.1 1015.0 0.0
16/08:00pm 16.1 14.4 9.8 66 3.3 SW 9 13 5 7 1015.2 1015.1 0.0
16/07:30pm 17.3 14.8 9.7 61 4.0 WSW 13 17 7 9 1015.3 1015.2 0.0
16/07:00pm 18.3 15.5 9.9 58 4.5 SW 15 20 8 11 1015.1 1015.0 0.0
16/06:30pm 18.3 15.0 9.6 57 4.6 WSW 17 22 9 12 1015.1 1015.0 0.0
16/06:00pm 18.8 15.0 9.8 56 4.8 SW 20 24 11 13 1015.3 1015.2 0.0
16/05:30pm 18.9 15.3 9.9 56 4.8 WSW 19 26 10 14 1015.3 1015.2 0.0
16/05:00pm 19.5 16.2 9.7 53 5.2 WSW 17 24 9 13 1015.4 1015.3 0.0
16/04:30pm 20.0 16.8 10.1 53 5.3 SW 17 28 9 15 1015.5 1015.4 0.0
16/04:00pm 19.4 16.2 9.9 54 5.1 SW 17 24 9 13 1015.7 1015.6 0.0
16/03:30pm 20.3 17.2 10.4 53 5.4 SW 17 24 9 13 1015.7 1015.6 0.0
16/03:00pm 19.7 16.5 10.1 54 5.1 SW 17 24 9 13 1015.9 1015.8 0.0
16/02:30pm 19.9 16.3 9.8 52 5.4 SSW 19 26 10 14 1016.1 1016.0 0.0
16/02:00pm 19.9 16.9 10.6 55 5.0 SSW 17 28 9 15 1016.2 1016.1 0.0
16/01:30pm 19.2 16.4 9.9 55 5.0 SW 15 26 8 14 1016.3 1016.2 0.0
16/01:00pm 19.4 16.4 10.7 57 4.7 SSW 17 24 9 13 1016.4 1016.3 0.0
16/12:30pm 19.2 16.0 9.9 55 5.0 SSW 17 26 9 14 1016.6 1016.5 0.0
16/12:00pm 19.4 16.3 10.4 56 4.8 SSW 17 26 9 14 1016.8 1016.7 0.0
16/11:30am 19.1 15.7 10.4 57 4.7 SSW 19 28 10 15 1016.9 1016.8 0.0
16/11:00am 19.0 15.5 10.3 57 4.7 SSW 19 26 10 14 1016.9 1016.8 0.0
16/10:30am 18.8 15.3 10.1 57 4.6 SSW 19 24 10 13 1016.9 1016.8 0.0
16/10:00am 18.3 14.4 9.6 57 4.6 SSW 20 26 11 14 1016.7 1016.6 0.0
16/09:30am 18.5 14.9 10.6 60 4.2 SSW 20 26 11 14 1016.6 1016.5 0.0
16/09:00am 17.9 14.3 10.5 62 4.0 SSW 20 24 11 13 1016.5 1016.4 0.0
16/08:30am 17.2 13.8 10.6 65 3.5 SW 19 22 10 12 1016.3 1016.2 0.0
16/08:00am 16.5 13.3 11.2 71 2.9 SW 19 24 10 13 1016.0 1015.9 0.0
16/07:30am 15.8 13.0 11.2 74 2.5 SW 17 24 9 13 1015.8 1015.7 0.0
16/07:00am 15.6 13.6 11.4 76 2.3 SSW 13 19 7 10 1015.4 1015.3 0.0
16/06:30am 15.6 12.3 11.6 77 2.2 SSW 20 24 11 13 1015.2 1015.1 0.0
16/06:00am 15.2 12.5 11.6 79 1.9 SSW 17 22 9 12 1015.1 1015.0 0.0
16/05:30am 15.5 13.5 12.8 84 1.5 SSW 15 20 8 11 1014.7 1014.6 0.0
16/05:00am 15.2 13.7 13.1 87 1.2 SW 13 19 7 10 1014.6 1014.5 0.0
16/04:30am 14.8 13.7 13.2 90 0.9 SW 11 15 6 8 1014.6 1014.5 0.0
16/04:00am 14.3 13.1 12.9 91 0.8 SW 11 13 6 7 1014.7 1014.6 0.0
16/03:30am 13.7 13.2 12.1 90 0.9 WSW 6 7 3 4 1014.6 1014.5 0.0
16/03:00am 13.6 12.8 11.8 89 1.0 WSW 7 9 4 5 1014.5 1014.4 0.0
16/02:30am 14.0 12.9 12.0 88 1.1 SW 9 11 5 6 1014.5 1014.4 0.0
16/02:00am 14.6 13.6 12.3 86 1.3 SW 9 11 5 6 1014.6 1014.5 0.0
16/01:30am 15.3 14.3 13.3 88 1.1 SW 11 15 6 8 1014.6 1014.5 0.0
16/01:00am 14.7 13.0 12.6 87 1.1 SSW 13 17 7 9 1014.8 1014.7 0.0
16/12:30am 15.1 13.2 13.1 88 1.1 SSW 15 19 8 10 1014.8 1014.7 0.0
16/12:00am 14.8 13.6 12.7 87 1.2 SSW 11 13 6 7 1014.8 1014.7 0.0
 
Date/Time
CDT
Temp
°C
App
Temp
°C
Dew
Point
°C
Rel
Hum
%
Delta-T
°C
Wind Press
QNH
hPa
Press
MSL
hPa
Rain since
9am
mm
Dir  Spd
km/h
Gust
km/h
Spd
kts
Gust
kts
15/11:30pm 15.6 13.1 13.6 88 1.1 SW 19 28 10 15 1014.9 1014.8 0.0
15/11:00pm 15.8 14.9 13.8 88 1.1 WSW 11 15 6 8 1015.1 1015.0 0.0
15/10:30pm 15.5 14.8 13.3 87 1.2 W 9 13 5 7 1015.1 1015.0 0.0
15/10:00pm 15.9 14.8 13.2 84 1.5 WSW 11 15 6 8 1015.1 1015.0 0.0
15/09:30pm 17.0 15.5 14.3 84 1.5 WSW 15 17 8 9 1014.9 1014.8 0.0
15/09:00pm 16.8 15.3 14.1 84 1.5 WSW 15 19 8 10 1014.7 1014.6 0.0
15/08:30pm 17.0 14.6 13.9 82 1.8 WSW 19 26 10 14 1014.5 1014.4 0.0
15/08:00pm 17.3 14.7 13.8 80 2.0 WSW 20 30 11 16 1014.5 1014.4 0.0
15/07:30pm 17.5 15.6 14.2 81 1.9 W 17 22 9 12 1014.5 1014.4 0.0
15/07:00pm 17.3 14.8 14.0 81 1.9 W 20 28 11 15 1014.5 1014.4 0.0
15/06:30pm 17.6 15.9 13.7 78 2.2 W 15 20 8 11 1014.5 1014.4 0.0
15/06:00pm 16.8 14.6 14.3 85 1.4 WSW 19 28 10 15 1014.6 1014.5 0.0
15/05:30pm 18.4 15.1 13.9 75 2.6 W 24 30 13 16 1014.6 1014.5 0.0
15/05:00pm 19.2 15.5 14.0 72 3.0 WNW 26 33 14 18 1014.8 1014.7 0.0
15/04:30pm 18.2 14.3 13.3 73 2.8 W 26 35 14 19 1015.0 1014.9 0.0
15/04:00pm 18.3 13.6 13.2 72 2.9 WSW 30 41 16 22 1015.1 1015.0 0.0
15/03:30pm 18.3 14.4 13.4 73 2.8 WNW 26 35 14 19 1015.3 1015.2 0.0
15/03:00pm 19.3 15.0 13.3 68 3.4 WNW 28 35 15 19 1015.5 1015.4 0.0
15/02:30pm 18.8 14.1 13.2 70 3.2 W 30 41 16 22 1015.7 1015.6 0.0
15/02:00pm 20.5 16.3 13.5 64 4.0 W 28 37 15 20 1015.7 1015.6 0.0
15/01:30pm 20.0 16.1 13.2 65 3.9 WNW 26 37 14 20 1015.7 1015.6 0.0
15/01:00pm 19.3 15.2 12.8 66 3.7 WNW 26 35 14 19 1015.7 1015.6 0.0
15/12:30pm 17.8 15.0 12.7 72 2.8 WNW 19 28 10 15 1016.2 1016.1 0.0
15/12:00pm 17.3 12.5 13.0 76 2.4 W 30 39 16 21 1016.4 1016.3 0.0

Other Formats:

Comma delimited format used in spreadsheet applications
http://www.bom.gov.au/fwo/IDS60801/IDS60801.94813.axf

JavaScript Object Notation format (JSON) in row-major order
http://www.bom.gov.au/fwo/IDS60801/IDS60801.94813.json